createdAt,value
2019-05-16T00:00:29.134Z,2.98
2019-05-16T00:02:54.812Z,2.42
2019-05-16T00:05:20.324Z,2.70
2019-05-16T00:07:45.853Z,2.62
2019-05-16T00:10:11.428Z,2.72
2019-05-16T00:12:39.698Z,2.17
2019-05-16T00:15:04.327Z,2.42
2019-05-16T00:17:30.923Z,1.95
2019-05-16T00:19:58.742Z,2.37
2019-05-16T00:22:23.594Z,2.30
2019-05-16T00:24:49.058Z,2.33
2019-05-16T00:27:14.549Z,2.60
2019-05-16T00:29:40.307Z,2.10
2019-05-16T00:32:08.419Z,2.33
2019-05-16T00:34:33.310Z,2.55
2019-05-16T00:36:58.809Z,2.17
2019-05-16T00:39:24.454Z,2.33
2019-05-16T00:41:50.058Z,2.47
2019-05-16T00:44:15.636Z,2.70
2019-05-16T00:46:41.127Z,2.30
2019-05-16T00:49:08.248Z,2.45
2019-05-16T00:51:34.360Z,2.20
2019-05-16T00:54:00.113Z,2.50
2019-05-16T00:56:26.289Z,2.47
2019-05-16T00:58:52.501Z,2.40
2019-05-16T01:01:18.964Z,2.40
2019-05-16T01:03:45.575Z,2.58
2019-05-16T01:06:19.225Z,2.90
2019-05-16T01:08:38.618Z,2.45
2019-05-16T01:11:04.187Z,2.70
2019-05-16T01:13:29.677Z,2.97
2019-05-16T01:15:55.153Z,2.70
2019-05-16T01:18:20.636Z,3.15
2019-05-16T01:20:48.042Z,3.62
2019-05-16T01:23:13.942Z,3.50
2019-05-16T01:25:39.430Z,3.50
2019-05-16T01:28:05.102Z,3.75
2019-05-16T01:30:30.589Z,3.20
2019-05-16T01:32:58.218Z,3.50
2019-05-16T01:35:23.286Z,3.30
2019-05-16T01:37:49.014Z,3.62
2019-05-16T01:40:15.381Z,3.80
2019-05-16T01:42:41.415Z,3.47
2019-05-16T01:45:08.223Z,3.87
2019-05-16T01:47:33.827Z,3.95
2019-05-16T01:49:59.344Z,3.72
2019-05-16T01:52:25.075Z,3.75
2019-05-16T01:54:50.496Z,5.05
2019-05-16T01:57:17.920Z,4.30
2019-05-16T01:59:43.194Z,3.60
2019-05-16T02:02:08.702Z,4.15
2019-05-16T02:04:34.184Z,3.30
2019-05-16T02:06:59.960Z,3.98
2019-05-16T02:09:27.911Z,3.70
2019-05-16T02:11:52.627Z,3.40
2019-05-16T02:14:18.093Z,3.40
2019-05-16T02:16:43.991Z,3.27
2019-05-16T02:19:09.478Z,3.95
2019-05-16T02:21:34.972Z,3.77
2019-05-16T02:24:01.994Z,3.42
2019-05-16T02:26:28.294Z,3.25
2019-05-16T02:28:53.865Z,3.87
2019-05-16T02:31:22.645Z,3.62
2019-05-16T02:33:46.518Z,3.70
2019-05-16T02:36:11.992Z,3.20
2019-05-16T02:38:37.468Z,2.85
2019-05-16T02:41:03.618Z,2.98
2019-05-16T02:43:31.353Z,2.55
2019-05-16T02:45:56.764Z,2.42
2019-05-16T02:48:22.257Z,2.83
2019-05-16T02:50:50.903Z,2.80
2019-05-16T02:53:14.966Z,2.50
2019-05-16T02:55:41.014Z,2.47
2019-05-16T02:58:06.960Z,2.40
2019-05-16T03:00:41.895Z,2.80
2019-05-16T03:03:06.849Z,2.83
2019-05-16T03:05:32.938Z,2.90
2019-05-16T03:08:01.334Z,2.37
2019-05-16T03:10:26.410Z,2.83
2019-05-16T03:13:00.560Z,2.65
2019-05-16T03:15:25.090Z,2.10
2019-05-16T03:17:58.414Z,2.35
2019-05-16T03:20:25.123Z,2.30
2019-05-16T03:22:52.088Z,2.50
2019-05-16T03:25:17.596Z,2.73
2019-05-16T03:27:43.408Z,2.58
2019-05-16T03:30:14.279Z,2.62
2019-05-16T03:32:36.162Z,2.80
2019-05-16T03:35:05.026Z,2.72
2019-05-16T03:37:30.802Z,2.77
2019-05-16T03:39:56.350Z,2.30
2019-05-16T03:42:21.852Z,2.90
2019-05-16T03:44:47.335Z,2.55
2019-05-16T03:47:12.846Z,3.02
2019-05-16T03:49:38.346Z,2.27
2019-05-16T03:52:04.323Z,2.90
2019-05-16T03:54:31.440Z,3.15
2019-05-16T03:57:00.297Z,3.17
2019-05-16T03:59:24.462Z,3.42
2019-05-16T04:01:51.101Z,3.85
2019-05-16T04:04:16.868Z,3.60
2019-05-16T04:06:42.363Z,3.45
2019-05-16T04:09:12.141Z,3.42
2019-05-16T04:11:36.398Z,3.40
2019-05-16T04:14:01.889Z,2.80
2019-05-16T04:16:27.346Z,3.60
2019-05-16T04:18:52.820Z,2.90
2019-05-16T04:21:21.604Z,3.10
2019-05-16T04:23:45.521Z,2.83
2019-05-16T04:26:11.569Z,3.00
2019-05-16T04:28:40.923Z,3.25
2019-05-16T04:31:04.875Z,3.17
2019-05-16T04:33:31.479Z,2.75
2019-05-16T04:36:04.059Z,2.60
2019-05-16T04:38:39.050Z,2.77
2019-05-16T04:40:56.772Z,2.47
2019-05-16T04:43:22.763Z,2.60
2019-05-16T04:45:52.319Z,2.30
2019-05-16T04:48:16.540Z,3.00
2019-05-16T04:50:42.354Z,2.50
2019-05-16T04:53:07.830Z,2.45
2019-05-16T04:55:33.319Z,2.40
2019-05-16T04:58:01.398Z,2.50
2019-05-16T05:00:26.763Z,2.50
2019-05-16T05:02:52.280Z,2.80
2019-05-16T05:05:21.447Z,2.22
2019-05-16T05:07:45.760Z,2.10
2019-05-16T05:10:13.220Z,2.13
2019-05-16T05:12:40.823Z,2.35
2019-05-16T05:15:11.185Z,2.55
2019-05-16T05:17:35.666Z,2.22
2019-05-16T05:20:01.377Z,2.30
2019-05-16T05:22:26.838Z,1.90
2019-05-16T05:24:52.348Z,2.00
2019-05-16T05:27:19.738Z,1.90
2019-05-16T05:29:45.064Z,2.15
2019-05-16T05:32:14.465Z,1.87
2019-05-16T05:34:39.859Z,1.92
2019-05-16T05:37:05.788Z,2.15
2019-05-16T05:39:31.267Z,1.95
2019-05-16T05:41:56.767Z,1.83
2019-05-16T05:44:22.272Z,2.15
2019-05-16T05:46:47.769Z,1.85
2019-05-16T05:49:13.292Z,1.70
2019-05-16T05:51:40.595Z,1.98
2019-05-16T05:54:06.044Z,1.80
2019-05-16T05:56:31.562Z,2.25
2019-05-16T05:58:58.940Z,1.80
2019-05-16T06:01:27.810Z,2.40
2019-05-16T06:03:53.710Z,2.00
2019-05-16T06:06:21.097Z,1.70
2019-05-16T06:08:46.587Z,1.75
2019-05-16T06:11:12.027Z,1.60
2019-05-16T06:13:37.480Z,2.02
2019-05-16T06:16:02.953Z,1.70
2019-05-16T06:18:30.539Z,2.10
2019-05-16T06:20:55.582Z,2.07
2019-05-16T06:23:21.255Z,2.12
2019-05-16T06:25:46.915Z,2.58
2019-05-16T06:28:12.323Z,2.20
2019-05-16T06:30:40.553Z,2.40
2019-05-16T06:33:05.592Z,2.27
2019-05-16T06:35:31.046Z,1.98
2019-05-16T06:37:56.599Z,2.20
2019-05-16T06:40:22.788Z,1.90
2019-05-16T06:42:50.935Z,2.00
2019-05-16T06:45:16.344Z,2.10
2019-05-16T06:47:44.331Z,1.67
2019-05-16T06:50:11.436Z,2.10
2019-05-16T06:52:37.128Z,1.85
2019-05-16T06:55:02.836Z,2.33
2019-05-16T06:57:32.230Z,2.42
2019-05-16T06:59:57.681Z,2.33
2019-05-16T07:02:29.885Z,2.17
2019-05-16T07:04:50.700Z,2.40
2019-05-16T07:07:20.333Z,2.22
2019-05-16T07:09:58.097Z,1.90
2019-05-16T07:12:12.681Z,2.08
2019-05-16T07:14:40.540Z,2.17
2019-05-16T07:17:10.938Z,2.50
2019-05-16T07:19:36.373Z,2.60
2019-05-16T07:22:02.155Z,2.90
2019-05-16T07:24:30.423Z,2.30
2019-05-16T07:26:55.642Z,2.10
2019-05-16T07:29:21.435Z,2.65
2019-05-16T07:31:47.003Z,2.35
2019-05-16T07:34:14.666Z,1.77
2019-05-16T07:36:40.612Z,2.27
2019-05-16T07:39:07.332Z,2.05
2019-05-16T07:41:32.941Z,2.20
2019-05-16T07:44:00.742Z,2.25
2019-05-16T07:46:25.737Z,2.40
2019-05-16T07:48:52.200Z,3.02
2019-05-16T07:51:17.702Z,3.15
2019-05-16T07:53:43.489Z,3.50
2019-05-16T07:56:10.598Z,2.70
2019-05-16T07:58:36.419Z,2.77
2019-05-16T08:01:07.716Z,2.83
2019-05-16T08:03:30.349Z,2.37
2019-05-16T08:05:56.017Z,2.70
2019-05-16T08:08:24.078Z,2.60
2019-05-16T08:10:50.737Z,2.22
2019-05-16T08:13:17.834Z,2.30
2019-05-16T08:15:44.669Z,2.60
2019-05-16T08:18:11.063Z,2.90
2019-05-16T08:20:36.861Z,2.80
2019-05-16T08:23:02.398Z,2.75
2019-05-16T08:25:27.829Z,2.62
2019-05-16T08:27:53.929Z,2.85
2019-05-16T08:30:21.073Z,3.17
2019-05-16T08:32:47.080Z,3.20
2019-05-16T08:35:12.779Z,3.12
2019-05-16T08:37:46.632Z,3.52
2019-05-16T08:40:07.717Z,3.52
2019-05-16T08:42:33.385Z,2.47
2019-05-16T08:45:01.906Z,2.00
2019-05-16T08:47:26.227Z,2.33
2019-05-16T08:49:52.323Z,2.35
2019-05-16T08:52:22.427Z,2.40
2019-05-16T08:54:46.444Z,2.90
2019-05-16T08:57:26.069Z,2.43
2019-05-16T08:59:41.095Z,2.77
2019-05-16T09:02:06.944Z,2.72
2019-05-16T09:04:34.132Z,3.67
2019-05-16T09:07:01.932Z,3.77
2019-05-16T09:10:19.016Z,4.30
2019-05-16T09:11:57.400Z,5.03
2019-05-16T09:14:22.280Z,4.83
2019-05-16T09:16:48.171Z,5.03
2019-05-16T09:19:13.672Z,4.17
2019-05-16T09:21:39.856Z,4.20
2019-05-16T09:24:06.776Z,3.45
2019-05-16T09:26:33.136Z,3.22
2019-05-16T09:28:58.971Z,3.47
2019-05-16T09:31:27.253Z,3.20
2019-05-16T09:33:52.267Z,3.27
2019-05-16T09:36:17.758Z,2.75
2019-05-16T09:38:43.926Z,2.08
2019-05-16T09:41:09.378Z,2.20
2019-05-16T09:43:38.548Z,2.53
2019-05-16T09:46:04.004Z,2.72
2019-05-16T09:48:30.037Z,2.77
2019-05-16T09:50:57.663Z,2.90
2019-05-16T09:53:23.088Z,2.72
2019-05-16T09:55:48.570Z,2.50
2019-05-16T09:58:14.486Z,2.60
2019-05-16T10:00:40.182Z,3.17
2019-05-16T10:03:07.151Z,2.70
2019-05-16T10:05:32.664Z,2.60
2019-05-16T10:07:58.170Z,2.40
2019-05-16T10:10:23.701Z,2.98
2019-05-16T10:12:49.183Z,2.98
2019-05-16T10:15:17.446Z,2.85
2019-05-16T10:17:42.082Z,2.40
2019-05-16T10:20:08.259Z,2.30
2019-05-16T10:22:34.265Z,3.37
2019-05-16T10:24:59.638Z,2.45
2019-05-16T10:27:26.488Z,1.90
2019-05-16T10:29:51.988Z,2.17
2019-05-16T10:32:17.431Z,2.25
2019-05-16T10:34:42.877Z,2.25
2019-05-16T10:37:08.250Z,1.90
2019-05-16T10:39:33.951Z,2.55
2019-05-16T10:41:59.389Z,2.58
2019-05-16T10:44:27.830Z,2.72
2019-05-16T10:46:52.054Z,2.20
2019-05-16T10:49:32.826Z,2.60
2019-05-16T10:51:46.989Z,3.00
2019-05-16T10:54:14.127Z,2.42
2019-05-16T10:56:40.467Z,2.35
2019-05-16T10:59:46.715Z,2.60
2019-05-16T11:01:33.323Z,2.40
2019-05-16T11:03:58.785Z,2.47
2019-05-16T11:06:28.231Z,2.17
2019-05-16T11:08:51.438Z,2.72
2019-05-16T11:11:19.687Z,2.90
2019-05-16T11:13:43.975Z,3.00
2019-05-16T11:16:09.794Z,2.70
2019-05-16T11:18:37.488Z,2.60
2019-05-16T11:21:02.388Z,2.98
2019-05-16T11:23:31.264Z,3.17
2019-05-16T11:25:56.068Z,2.55
2019-05-16T11:28:22.179Z,2.50
2019-05-16T11:30:48.758Z,2.90
2019-05-16T11:33:17.387Z,2.77
2019-05-16T11:35:42.498Z,3.12
2019-05-16T11:38:07.919Z,3.27
2019-05-16T11:40:33.383Z,3.33
2019-05-16T11:43:09.222Z,3.12
2019-05-16T11:45:27.189Z,3.72
2019-05-16T11:47:52.755Z,2.50
2019-05-16T11:50:19.660Z,3.08
2019-05-16T11:52:47.780Z,3.25
2019-05-16T11:55:13.837Z,3.40
2019-05-16T11:57:40.245Z,4.37
2019-05-16T12:00:08.027Z,3.77
2019-05-16T12:02:33.552Z,3.47
2019-05-16T12:04:59.010Z,3.17
2019-05-16T12:07:32.327Z,3.98
2019-05-16T12:09:55.428Z,3.15
2019-05-16T12:12:20.992Z,3.17
2019-05-16T12:14:46.079Z,3.62
2019-05-16T12:17:11.658Z,3.20
2019-05-16T12:19:43.467Z,3.37
2019-05-16T12:22:06.975Z,3.40
2019-05-16T12:24:37.523Z,4.28
2019-05-16T12:27:00.815Z,3.47
2019-05-16T12:29:28.194Z,4.03
2019-05-16T12:31:58.612Z,3.30
2019-05-16T12:34:21.038Z,3.20
2019-05-16T12:36:47.251Z,3.25
2019-05-16T12:39:12.904Z,3.65
2019-05-16T12:41:40.892Z,3.65
2019-05-16T12:44:07.593Z,3.40
2019-05-16T12:46:33.225Z,4.17
2019-05-16T12:48:58.997Z,3.72
2019-05-16T12:51:26.480Z,4.10
2019-05-16T12:53:52.243Z,4.28
2019-05-16T12:56:20.189Z,3.87
2019-05-16T12:58:47.280Z,4.20
2019-05-16T13:01:16.454Z,5.08
2019-05-16T13:03:41.031Z,5.10
2019-05-16T13:06:06.885Z,4.60
2019-05-16T13:08:32.287Z,4.50
2019-05-16T13:10:58.195Z,4.90
2019-05-16T13:13:23.642Z,5.30
2019-05-16T13:15:49.236Z,4.05
2019-05-16T13:18:16.900Z,4.20
2019-05-16T13:20:42.715Z,4.45
2019-05-16T13:23:14.523Z,4.70
2019-05-16T13:25:37.047Z,4.33
2019-05-16T13:28:02.647Z,4.65
2019-05-16T13:30:29.252Z,5.17
2019-05-16T13:32:56.551Z,4.30
2019-05-16T13:35:22.742Z,4.85
2019-05-16T13:37:48.368Z,4.20
2019-05-16T13:40:17.009Z,4.70
2019-05-16T13:42:42.413Z,5.00
2019-05-16T13:45:11.037Z,5.50
2019-05-16T13:47:37.831Z,4.97
2019-05-16T13:50:03.679Z,4.83
2019-05-16T13:52:29.521Z,5.10
2019-05-16T13:54:56.416Z,4.80
2019-05-16T13:57:22.518Z,5.05
2019-05-16T13:59:47.972Z,4.75
2019-05-16T14:02:13.794Z,5.47
2019-05-16T14:04:40.047Z,5.08
2019-05-16T14:07:07.595Z,5.22
2019-05-16T14:09:33.436Z,5.35
2019-05-16T14:11:59.013Z,4.67
2019-05-16T14:14:37.365Z,4.20
2019-05-16T14:16:53.620Z,4.33
2019-05-16T14:19:20.835Z,4.08
2019-05-16T14:21:47.782Z,3.83
2019-05-16T14:24:14.159Z,4.40
2019-05-16T14:26:42.552Z,4.10
2019-05-16T14:29:08.246Z,4.12
2019-05-16T14:31:33.928Z,4.33
2019-05-16T14:33:59.825Z,4.33
2019-05-16T14:36:27.753Z,4.45
2019-05-16T14:38:53.457Z,4.05
2019-05-16T14:41:19.010Z,4.03
2019-05-16T14:43:46.797Z,4.35
2019-05-16T14:46:12.125Z,3.62
2019-05-16T14:48:37.741Z,3.95
2019-05-16T14:51:03.290Z,3.95
2019-05-16T14:53:29.442Z,4.55
2019-05-16T14:55:57.439Z,4.75
2019-05-16T14:58:22.708Z,4.12
2019-05-16T15:00:49.316Z,4.03
2019-05-16T15:03:17.885Z,3.70
2019-05-16T15:05:43.240Z,3.85
2019-05-16T15:08:09.075Z,3.98
2019-05-16T15:10:34.516Z,3.37
2019-05-16T15:12:59.938Z,3.72
2019-05-16T15:15:28.084Z,3.40
2019-05-16T15:17:56.647Z,3.20
2019-05-16T15:20:21.279Z,3.52
2019-05-16T15:22:47.369Z,3.72
2019-05-16T15:25:13.499Z,3.58
2019-05-16T15:27:38.948Z,3.58
2019-05-16T15:30:06.931Z,3.72
2019-05-16T15:32:32.616Z,3.33
2019-05-16T15:34:58.343Z,3.80
2019-05-16T15:37:23.802Z,3.60
2019-05-16T15:39:49.654Z,4.37
2019-05-16T15:42:18.009Z,4.03
2019-05-16T15:44:43.079Z,4.10
2019-05-16T15:47:08.781Z,4.95
2019-05-16T15:49:37.571Z,3.95
2019-05-16T15:52:02.158Z,4.35
2019-05-16T15:54:29.951Z,4.92
2019-05-16T15:56:55.900Z,4.40
2019-05-16T15:59:22.041Z,4.28
2019-05-16T16:01:47.714Z,4.37
2019-05-16T16:04:17.486Z,4.83
2019-05-16T16:06:43.173Z,4.65
2019-05-16T16:09:08.768Z,4.92
2019-05-16T16:11:34.217Z,4.45
2019-05-16T16:14:07.612Z,4.25
2019-05-16T16:16:46.358Z,4.37
2019-05-16T16:19:11.353Z,4.90
2019-05-16T16:21:38.214Z,4.55
2019-05-16T16:24:05.820Z,3.98
2019-05-16T16:26:30.878Z,4.83
2019-05-16T16:28:56.265Z,4.67
2019-05-16T16:31:21.720Z,4.00
2019-05-16T16:33:47.733Z,4.47
2019-05-16T16:36:13.477Z,4.17
2019-05-16T16:38:38.932Z,5.20
2019-05-16T16:41:04.404Z,4.50
2019-05-16T16:43:30.903Z,4.50
2019-05-16T16:46:06.066Z,4.17
2019-05-16T16:48:23.557Z,4.22
2019-05-16T16:50:49.437Z,4.65
2019-05-16T16:53:17.440Z,4.10
2019-05-16T16:55:42.368Z,4.20
2019-05-16T16:58:09.537Z,4.47
2019-05-16T17:00:37.912Z,4.20
2019-05-16T17:03:06.547Z,4.17
2019-05-16T17:05:29.941Z,4.60
2019-05-16T17:07:57.119Z,3.92
2019-05-16T17:10:22.744Z,3.92
2019-05-16T17:12:48.248Z,4.53
2019-05-16T17:15:14.340Z,3.65
2019-05-16T17:17:39.822Z,4.00
2019-05-16T17:20:07.604Z,3.83
2019-05-16T17:22:33.258Z,4.40
2019-05-16T17:24:59.786Z,4.12
2019-05-16T17:27:26.900Z,4.30
2019-05-16T17:29:53.723Z,4.60
2019-05-16T17:32:19.190Z,3.98
2019-05-16T17:34:44.923Z,4.72
2019-05-16T17:37:10.678Z,4.20
2019-05-16T17:39:37.555Z,4.92
2019-05-16T17:42:03.139Z,4.37
2019-05-16T17:44:28.607Z,4.50
2019-05-16T17:46:57.485Z,4.58
2019-05-16T17:49:23.580Z,4.15
2019-05-16T17:51:50.500Z,4.50
2019-05-16T17:54:17.398Z,3.90
2019-05-16T17:56:42.900Z,4.10
2019-05-16T17:59:08.824Z,4.17
2019-05-16T18:01:34.585Z,4.78
2019-05-16T18:04:00.037Z,4.85
2019-05-16T18:06:27.179Z,5.00
2019-05-16T18:08:52.716Z,4.72
2019-05-16T18:11:18.121Z,4.58
2019-05-16T18:13:46.326Z,4.33
2019-05-16T18:16:11.109Z,4.05
2019-05-16T18:18:37.605Z,4.00
2019-05-16T18:21:03.233Z,4.42
2019-05-16T18:23:28.692Z,4.42
2019-05-16T18:25:54.147Z,4.42
2019-05-16T18:28:19.912Z,4.17
2019-05-16T18:30:47.236Z,4.22
2019-05-16T18:33:12.930Z,4.47
2019-05-16T18:35:38.405Z,5.67
2019-05-16T18:38:03.879Z,5.08
2019-05-16T18:40:29.332Z,5.50
2019-05-16T18:42:57.091Z,4.80
2019-05-16T18:45:23.841Z,4.47
2019-05-16T18:47:49.291Z,4.55
2019-05-16T18:50:18.146Z,4.62
2019-05-16T18:52:42.680Z,5.15
2019-05-16T18:55:08.831Z,4.37
2019-05-16T18:57:34.352Z,4.60
2019-05-16T18:59:59.853Z,4.78
2019-05-16T19:02:27.154Z,4.65
2019-05-16T19:04:52.528Z,4.67
2019-05-16T19:07:17.993Z,4.10
2019-05-16T19:09:43.487Z,5.10
2019-05-16T19:12:08.941Z,4.65
2019-05-16T19:14:36.713Z,4.72
2019-05-16T19:17:01.897Z,5.47
2019-05-16T19:19:28.408Z,5.62
2019-05-16T19:21:53.906Z,5.65
2019-05-16T19:24:19.672Z,6.15
2019-05-16T19:26:46.934Z,5.78
2019-05-16T19:29:12.312Z,6.22
2019-05-16T19:31:39.158Z,6.58
2019-05-16T19:34:07.116Z,6.75
2019-05-16T19:36:32.813Z,6.67
2019-05-16T19:38:58.297Z,6.33
2019-05-16T19:41:23.753Z,6.35
2019-05-16T19:43:49.264Z,6.45
2019-05-16T19:46:15.018Z,6.47
2019-05-16T19:48:40.469Z,8.03
2019-05-16T19:51:07.468Z,7.40
2019-05-16T19:53:33.208Z,7.70
2019-05-16T19:55:58.651Z,8.18
2019-05-16T19:58:31.125Z,7.97
2019-05-16T20:00:57.230Z,8.60
2019-05-16T20:03:22.962Z,8.63
2019-05-16T20:05:48.797Z,8.80
2019-05-16T20:08:14.253Z,10.23
2019-05-16T20:10:39.756Z,9.53
2019-05-16T20:13:07.524Z,10.43
2019-05-16T20:15:32.668Z,9.85
2019-05-16T20:17:58.792Z,9.30
2019-05-16T20:20:24.257Z,8.43
2019-05-16T20:22:52.881Z,9.78
2019-05-16T20:25:19.041Z,9.03
2019-05-16T20:27:46.578Z,9.15
2019-05-16T20:30:12.552Z,8.95
2019-05-16T20:32:38.646Z,9.15
2019-05-16T20:35:08.542Z,9.13
2019-05-16T20:37:31.498Z,9.30
2019-05-16T20:39:57.558Z,9.48
2019-05-16T20:42:23.338Z,10.45
2019-05-16T20:44:49.822Z,11.03
2019-05-16T20:47:16.569Z,9.78
2019-05-16T20:49:42.723Z,9.90
2019-05-16T20:52:08.388Z,10.72
2019-05-16T20:54:34.229Z,10.85
2019-05-16T20:56:59.809Z,11.53
2019-05-16T20:59:26.637Z,11.93
2019-05-16T21:01:52.387Z,12.25
2019-05-16T21:04:18.000Z,11.80
2019-05-16T21:06:57.181Z,13.43
2019-05-16T21:09:10.740Z,13.65
2019-05-16T21:11:37.085Z,12.82
2019-05-16T21:14:02.801Z,11.97
2019-05-16T21:16:28.317Z,12.23
2019-05-16T21:18:54.196Z,13.62
2019-05-16T21:21:19.700Z,13.58
2019-05-16T21:23:46.971Z,13.15
2019-05-16T21:26:12.734Z,12.80
2019-05-16T21:28:38.307Z,13.80
2019-05-16T21:31:19.396Z,14.45
2019-05-16T21:33:46.923Z,14.25
2019-05-16T21:36:11.780Z,16.10
2019-05-16T21:38:37.251Z,15.20
2019-05-16T21:41:02.754Z,15.70
2019-05-16T21:43:28.528Z,17.00
2019-05-16T21:45:54.071Z,16.77
2019-05-16T21:48:20.133Z,15.18
2019-05-16T21:50:46.329Z,15.78
2019-05-16T21:53:12.118Z,15.55
2019-05-16T21:55:37.644Z,14.87
2019-05-16T21:58:03.150Z,16.85
2019-05-16T22:00:43.266Z,15.30
2019-05-16T22:03:09.322Z,17.98
2019-05-16T22:05:36.864Z,18.63
2019-05-16T22:08:02.110Z,18.97
2019-05-16T22:10:27.639Z,17.73
2019-05-16T22:12:53.505Z,17.50
2019-05-16T22:15:19.057Z,17.37
2019-05-16T22:17:44.584Z,16.75
2019-05-16T22:20:10.494Z,18.37
2019-05-16T22:22:38.134Z,17.32
2019-05-16T22:25:03.278Z,19.87
2019-05-16T22:27:28.780Z,18.67
2019-05-16T22:29:56.591Z,18.02
2019-05-16T22:32:21.505Z,18.65
2019-05-16T22:34:47.666Z,18.98
2019-05-16T22:37:13.250Z,18.73
2019-05-16T22:39:39.018Z,19.17
2019-05-16T22:42:06.440Z,18.32
2019-05-16T22:44:32.043Z,20.88
2019-05-16T22:46:57.487Z,20.20
2019-05-16T22:49:22.977Z,19.23
2019-05-16T22:51:48.509Z,20.10
2019-05-16T22:54:14.057Z,19.50
2019-05-16T22:56:39.665Z,19.92
2019-05-16T22:59:07.269Z,20.77
2019-05-16T23:01:32.473Z,21.83
2019-05-16T23:03:57.988Z,21.75
2019-05-16T23:06:23.571Z,22.07
2019-05-16T23:08:49.080Z,20.62
2019-05-16T23:11:16.348Z,20.92
2019-05-16T23:13:41.944Z,22.58
2019-05-16T23:16:07.465Z,21.30
2019-05-16T23:18:32.929Z,21.37
2019-05-16T23:20:58.432Z,20.62
2019-05-16T23:23:23.957Z,19.75
2019-05-16T23:25:51.195Z,19.45
2019-05-16T23:28:16.888Z,19.95
2019-05-16T23:30:42.404Z,20.17
2019-05-16T23:33:07.958Z,19.98
2019-05-16T23:35:33.432Z,22.10
2019-05-16T23:37:59.213Z,21.82
2019-05-16T23:40:25.620Z,20.97
2019-05-16T23:42:51.266Z,21.87
2019-05-16T23:45:17.300Z,19.73
2019-05-16T23:47:43.135Z,20.80
2019-05-16T23:50:09.675Z,20.93
2019-05-16T23:52:36.784Z,21.37
2019-05-16T23:55:02.291Z,20.55
2019-05-16T23:57:27.820Z,21.25
2019-05-16T23:59:53.566Z,19.65
